createdAt,value
2018-04-22T00:01:42.665Z,10.58
2018-04-22T00:04:11.063Z,10.44
2018-04-22T00:06:39.547Z,10.79
2018-04-22T00:09:08.057Z,10.98
2018-04-22T00:11:36.483Z,10.95
2018-04-22T00:14:04.943Z,10.90
2018-04-22T00:16:33.397Z,11.04
2018-04-22T00:19:01.854Z,10.95
2018-04-22T00:21:30.296Z,10.78
2018-04-22T00:23:58.701Z,10.79
2018-04-22T00:26:27.183Z,10.42
2018-04-22T00:28:55.560Z,10.59
2018-04-22T00:31:23.987Z,10.15
2018-04-22T00:33:52.420Z,10.44
2018-04-22T00:36:20.879Z,10.06
2018-04-22T00:38:49.296Z,10.18
2018-04-22T00:41:17.783Z,10.26
2018-04-22T00:43:46.241Z,10.38
2018-04-22T00:46:14.679Z,10.22
2018-04-22T00:48:43.068Z,9.76
2018-04-22T00:51:11.556Z,9.88
2018-04-22T00:53:51.721Z,10.11
2018-04-22T00:56:20.189Z,9.83
2018-04-22T00:58:48.639Z,10.01
2018-04-22T01:01:17.055Z,10.06
2018-04-22T01:03:45.496Z,10.03
2018-04-22T01:06:13.905Z,9.75
2018-04-22T01:08:42.345Z,9.39
2018-04-22T01:11:10.827Z,9.72
2018-04-22T01:13:39.282Z,9.71
2018-04-22T01:16:07.769Z,9.62
2018-04-22T01:18:36.206Z,9.70
2018-04-22T01:21:04.651Z,9.77
2018-04-22T01:23:33.119Z,9.75
2018-04-22T01:26:01.718Z,9.81
2018-04-22T01:28:30.146Z,9.80
2018-04-22T01:30:58.601Z,9.72
2018-04-22T01:33:27.057Z,9.71
2018-04-22T01:35:55.480Z,9.80
2018-04-22T01:38:23.913Z,9.51
2018-04-22T01:40:52.341Z,9.60
2018-04-22T01:43:20.804Z,9.55
2018-04-22T01:45:49.225Z,9.43
2018-04-22T01:48:17.678Z,9.33
2018-04-22T01:50:46.074Z,9.41
2018-04-22T01:53:14.554Z,9.50
2018-04-22T01:55:42.981Z,9.52
2018-04-22T01:58:11.449Z,9.50
2018-04-22T02:00:39.839Z,9.48
2018-04-22T02:03:08.288Z,9.36
2018-04-22T02:05:36.781Z,9.11
2018-04-22T02:08:05.204Z,9.15
2018-04-22T02:10:33.643Z,8.99
2018-04-22T02:13:02.111Z,9.07
2018-04-22T02:15:30.566Z,9.43
2018-04-22T02:17:59.011Z,9.31
2018-04-22T02:20:27.489Z,9.30
2018-04-22T02:22:55.954Z,9.23
2018-04-22T02:25:24.371Z,9.25
2018-04-22T02:27:52.834Z,9.38
2018-04-22T02:30:21.275Z,9.39
2018-04-22T02:32:49.662Z,9.37
2018-04-22T02:35:18.060Z,9.20
2018-04-22T02:37:46.500Z,9.05
2018-04-22T02:40:14.959Z,9.02
2018-04-22T02:42:43.412Z,8.86
2018-04-22T02:45:11.847Z,8.93
2018-04-22T02:47:40.341Z,9.09
2018-04-22T02:50:08.763Z,8.94
2018-04-22T02:52:37.200Z,9.08
2018-04-22T02:55:05.644Z,9.11
2018-04-22T02:57:34.100Z,8.95
2018-04-22T03:00:02.543Z,9.00
2018-04-22T03:02:30.987Z,9.08
2018-04-22T03:04:59.424Z,8.79
2018-04-22T03:07:27.848Z,8.52
2018-04-22T03:09:56.238Z,8.63
2018-04-22T03:12:24.692Z,8.69
2018-04-22T03:14:53.076Z,8.88
2018-04-22T03:17:21.521Z,8.77
2018-04-22T03:19:49.935Z,8.76
2018-04-22T03:22:18.463Z,8.89
2018-04-22T03:24:46.895Z,8.77
2018-04-22T03:27:15.304Z,8.68
2018-04-22T03:29:43.732Z,8.62
2018-04-22T03:32:13.148Z,8.71
2018-04-22T03:34:41.547Z,8.60
2018-04-22T03:37:10.004Z,8.41
2018-04-22T03:39:38.439Z,8.38
2018-04-22T03:42:06.883Z,8.53
2018-04-22T03:44:35.338Z,8.40
2018-04-22T03:47:03.802Z,8.27
2018-04-22T03:49:32.199Z,8.44
2018-04-22T03:52:00.666Z,8.27
2018-04-22T03:54:29.057Z,8.55
2018-04-22T03:56:57.560Z,8.61
2018-04-22T03:59:25.996Z,8.74
2018-04-22T04:01:54.463Z,8.83
2018-04-22T04:04:22.886Z,8.96
2018-04-22T04:06:51.395Z,8.94
2018-04-22T04:09:19.959Z,9.02
2018-04-22T04:11:48.388Z,9.04
2018-04-22T04:14:16.803Z,9.09
2018-04-22T04:16:45.284Z,9.07
2018-04-22T04:19:25.525Z,9.40
2018-04-22T04:22:05.842Z,9.43
2018-04-22T04:24:46.231Z,9.54
2018-04-22T04:30:19.940Z,9.56
2018-04-22T04:32:48.413Z,9.75
2018-04-22T04:35:16.899Z,9.90
2018-04-22T04:37:45.339Z,10.00
2018-04-22T04:40:13.726Z,10.19
2018-04-22T04:42:42.177Z,10.15
2018-04-22T04:45:10.582Z,9.63
2018-04-22T04:47:38.998Z,10.10
2018-04-22T04:50:13.695Z,10.51
2018-04-22T04:52:42.447Z,9.96
2018-04-22T04:55:10.896Z,11.05
2018-04-22T04:57:39.303Z,11.24
2018-04-22T05:00:07.727Z,11.39
2018-04-22T05:02:36.171Z,11.51
2018-04-22T05:05:04.612Z,11.68
2018-04-22T05:07:33.066Z,11.75
2018-04-22T05:10:01.495Z,11.93
2018-04-22T05:12:29.960Z,12.14
2018-04-22T05:14:58.544Z,12.33
2018-04-22T05:17:26.956Z,12.35
2018-04-22T05:19:55.361Z,12.42
2018-04-22T05:22:23.827Z,12.28
2018-04-22T05:24:52.247Z,12.12
2018-04-22T05:27:20.699Z,12.06
2018-04-22T05:29:49.103Z,12.02
2018-04-22T05:32:17.562Z,11.97
2018-04-22T05:34:46.028Z,12.23
2018-04-22T05:37:14.457Z,12.36
2018-04-22T05:39:42.876Z,12.55
2018-04-22T05:42:11.309Z,12.37
2018-04-22T05:44:40.143Z,12.67
2018-04-22T05:47:08.911Z,12.95
2018-04-22T05:49:37.336Z,12.99
2018-04-22T05:52:05.802Z,13.11
2018-04-22T05:54:34.440Z,13.27
2018-04-22T05:57:03.579Z,13.03
2018-04-22T05:59:32.117Z,13.14
2018-04-22T06:02:00.575Z,13.35
2018-04-22T06:04:29.011Z,12.97
2018-04-22T06:06:57.478Z,13.14
2018-04-22T06:09:25.988Z,13.17
2018-04-22T06:11:54.831Z,13.76
2018-04-22T06:14:23.332Z,14.30
2018-04-22T06:16:51.771Z,14.36
2018-04-22T06:19:20.327Z,14.76
2018-04-22T06:21:48.899Z,14.85
2018-04-22T06:24:17.329Z,15.10
2018-04-22T06:26:45.806Z,15.35
2018-04-22T06:29:14.215Z,15.71
2018-04-22T06:31:42.671Z,15.80
2018-04-22T06:34:11.115Z,15.87
2018-04-22T06:36:39.578Z,15.69
2018-04-22T06:39:08.032Z,15.73
2018-04-22T06:41:36.498Z,15.95
2018-04-22T06:44:04.941Z,15.74
2018-04-22T06:46:33.360Z,15.37
2018-04-22T06:49:02.127Z,16.18
2018-04-22T06:51:30.535Z,16.27
2018-04-22T06:53:58.955Z,16.49
2018-04-22T06:56:27.438Z,17.01
2018-04-22T06:58:56.092Z,17.21
2018-04-22T07:01:24.535Z,17.25
2018-04-22T07:03:52.981Z,17.02
2018-04-22T07:06:21.403Z,16.81
2018-04-22T07:08:49.867Z,16.70
2018-04-22T07:11:18.374Z,16.81
2018-04-22T07:13:46.981Z,16.72
2018-04-22T07:16:15.391Z,17.09
2018-04-22T07:18:43.807Z,17.19
2018-04-22T07:21:12.654Z,16.21
2018-04-22T07:23:41.076Z,18.13
2018-04-22T07:26:09.524Z,18.60
2018-04-22T07:28:37.939Z,18.46
2018-04-22T07:31:06.407Z,18.32
2018-04-22T07:33:34.868Z,18.05
2018-04-22T07:36:03.360Z,18.73
2018-04-22T07:38:31.787Z,18.72
2018-04-22T07:41:00.242Z,18.33
2018-04-22T07:43:28.694Z,18.39
2018-04-22T07:45:57.111Z,18.31
2018-04-22T07:48:25.561Z,18.22
2018-04-22T07:50:54.124Z,18.50
2018-04-22T07:53:22.610Z,18.24
2018-04-22T07:55:51.022Z,18.74
2018-04-22T07:58:19.465Z,18.94
2018-04-22T08:00:47.860Z,19.34
2018-04-22T08:03:16.307Z,19.56
2018-04-22T08:05:44.713Z,19.68
2018-04-22T08:08:13.146Z,19.68
2018-04-22T08:10:41.536Z,19.84
2018-04-22T08:13:09.999Z,20.17
2018-04-22T08:15:38.418Z,19.77
2018-04-22T08:18:06.830Z,20.26
2018-04-22T08:20:35.273Z,20.46
2018-04-22T08:23:03.725Z,20.32
2018-04-22T08:25:32.159Z,20.60
2018-04-22T08:28:00.566Z,20.39
2018-04-22T08:30:28.956Z,20.54
2018-04-22T08:32:57.391Z,20.52
2018-04-22T08:35:25.787Z,20.72
2018-04-22T08:37:54.247Z,20.44
2018-04-22T08:40:22.690Z,20.26
2018-04-22T08:42:51.091Z,20.39
2018-04-22T08:45:19.528Z,20.36
2018-04-22T08:47:47.966Z,20.77
2018-04-22T08:50:16.606Z,20.93
2018-04-22T08:52:45.041Z,21.14
2018-04-22T08:55:13.457Z,21.01
2018-04-22T08:57:41.951Z,21.23
2018-04-22T09:00:10.435Z,20.85
2018-04-22T09:02:39.011Z,21.01
2018-04-22T09:05:07.409Z,21.33
2018-04-22T09:07:35.879Z,21.19
2018-04-22T09:10:04.338Z,21.42
2018-04-22T09:12:32.798Z,20.94
2018-04-22T09:15:01.198Z,21.47
2018-04-22T09:17:29.627Z,21.91
2018-04-22T09:19:58.008Z,22.10
2018-04-22T09:22:26.720Z,21.71
2018-04-22T09:24:55.104Z,21.68
2018-04-22T09:27:23.633Z,21.19
2018-04-22T09:29:52.191Z,21.10
2018-04-22T09:32:20.604Z,21.12
2018-04-22T09:34:49.125Z,21.28
2018-04-22T09:37:17.523Z,21.64
2018-04-22T09:39:45.950Z,21.78
2018-04-22T09:42:14.363Z,21.93
2018-04-22T09:44:42.820Z,22.04
2018-04-22T09:47:11.275Z,22.12
2018-04-22T09:49:39.661Z,22.34
2018-04-22T09:52:08.052Z,22.08
2018-04-22T09:54:36.494Z,22.86
2018-04-22T09:57:04.873Z,23.43
2018-04-22T09:59:33.236Z,23.48
2018-04-22T10:02:01.680Z,23.10
2018-04-22T10:04:30.116Z,22.79
2018-04-22T10:06:58.527Z,23.05
2018-04-22T10:09:26.982Z,23.00
2018-04-22T10:11:55.463Z,23.01
2018-04-22T10:14:23.924Z,23.55
2018-04-22T10:16:52.311Z,23.16
2018-04-22T10:19:20.694Z,23.79
2018-04-22T10:21:49.127Z,23.66
2018-04-22T10:24:17.519Z,23.28
2018-04-22T10:26:45.927Z,23.79
2018-04-22T10:29:14.356Z,23.79
2018-04-22T10:31:42.775Z,23.83
2018-04-22T10:34:11.226Z,24.13
2018-04-22T10:36:39.672Z,23.77
2018-04-22T10:39:08.069Z,23.71
2018-04-22T10:41:36.538Z,24.03
2018-04-22T10:44:05.037Z,24.48
2018-04-22T10:46:33.473Z,24.63
2018-04-22T10:49:01.874Z,25.13
2018-04-22T10:51:30.293Z,24.19
2018-04-22T10:53:58.731Z,24.63
2018-04-22T10:56:27.104Z,24.61
2018-04-22T10:58:55.487Z,25.04
2018-04-22T11:01:24.111Z,25.28
2018-04-22T11:03:52.494Z,24.86
2018-04-22T11:06:21.063Z,24.94
2018-04-22T11:08:49.482Z,24.90
2018-04-22T11:11:17.943Z,24.70
2018-04-22T11:13:46.472Z,26.03
2018-04-22T11:16:15.032Z,25.96
2018-04-22T11:18:43.416Z,25.89
2018-04-22T11:21:11.849Z,26.24
2018-04-22T11:23:40.283Z,26.38
2018-04-22T11:26:08.748Z,26.15
2018-04-22T11:28:37.162Z,26.07
2018-04-22T11:31:05.759Z,25.87
2018-04-22T11:33:34.191Z,26.15
2018-04-22T11:36:02.629Z,25.98
2018-04-22T11:38:31.048Z,25.53
2018-04-22T11:40:59.474Z,26.66
2018-04-22T11:43:27.882Z,27.17
2018-04-22T11:45:56.565Z,26.85
2018-04-22T11:48:24.995Z,27.28
2018-04-22T11:50:53.408Z,27.57
2018-04-22T11:53:21.860Z,27.77
2018-04-22T11:55:50.283Z,27.41
2018-04-22T11:58:18.784Z,27.03
2018-04-22T12:00:47.195Z,27.22
2018-04-22T12:03:15.631Z,27.37
2018-04-22T12:05:44.331Z,27.74
2018-04-22T12:08:12.813Z,28.00
2018-04-22T12:10:41.258Z,27.63
2018-04-22T12:13:09.702Z,27.44
2018-04-22T12:15:38.074Z,27.46
2018-04-22T12:18:06.524Z,27.78
2018-04-22T12:20:34.971Z,28.86
2018-04-22T12:23:03.482Z,28.76
2018-04-22T12:25:31.870Z,28.53
2018-04-22T12:28:00.402Z,28.54
2018-04-22T12:30:29.028Z,28.49
2018-04-22T12:32:57.528Z,28.31
2018-04-22T12:35:25.941Z,29.29
2018-04-22T12:37:54.468Z,30.59
2018-04-22T12:40:22.922Z,30.18
2018-04-22T12:42:51.355Z,29.92
2018-04-22T12:45:19.757Z,29.83
2018-04-22T12:47:48.270Z,29.49
2018-04-22T12:50:16.723Z,28.43
2018-04-22T12:52:45.163Z,29.70
2018-04-22T12:55:13.568Z,30.75
2018-04-22T12:57:41.993Z,30.07
2018-04-22T13:00:10.407Z,30.07
2018-04-22T13:02:38.863Z,31.85
2018-04-22T13:05:07.383Z,32.73
2018-04-22T13:07:35.853Z,31.61
2018-04-22T13:10:04.327Z,31.46
2018-04-22T13:12:32.736Z,30.91
2018-04-22T13:15:01.398Z,30.97
2018-04-22T13:17:30.102Z,30.99
2018-04-22T13:19:58.504Z,31.68
2018-04-22T13:22:27.001Z,31.29
2018-04-22T13:24:55.403Z,32.00
2018-04-22T13:27:23.941Z,32.16
2018-04-22T13:29:52.344Z,32.44
2018-04-22T13:32:20.977Z,31.89
2018-04-22T13:34:49.352Z,30.21
2018-04-22T13:37:17.836Z,31.03
2018-04-22T13:39:46.236Z,32.65
2018-04-22T13:42:14.639Z,32.09
2018-04-22T13:44:43.111Z,31.49
2018-04-22T13:47:11.568Z,31.57
2018-04-22T13:49:40.048Z,30.69
2018-04-22T13:52:08.482Z,31.92
2018-04-22T13:54:37.013Z,32.18
2018-04-22T13:57:05.491Z,31.86
2018-04-22T13:59:33.987Z,32.23
2018-04-22T14:02:02.560Z,32.56
2018-04-22T14:04:30.964Z,32.29
2018-04-22T14:06:59.410Z,31.85
2018-04-22T14:09:27.816Z,30.39
2018-04-22T14:11:56.311Z,32.03
2018-04-22T14:14:24.756Z,31.28
2018-04-22T14:16:53.144Z,30.27
2018-04-22T14:19:21.593Z,31.79
2018-04-22T14:21:50.060Z,31.21
2018-04-22T14:24:18.507Z,31.27
2018-04-22T14:26:47.064Z,31.63
2018-04-22T14:29:15.468Z,33.10
2018-04-22T14:31:43.868Z,33.25
2018-04-22T14:34:12.308Z,32.79
2018-04-22T14:36:41.046Z,32.92
2018-04-22T14:39:09.488Z,34.17
2018-04-22T14:41:37.943Z,32.70
2018-04-22T14:44:18.248Z,33.17
2018-04-22T14:46:46.802Z,32.57
2018-04-22T14:49:15.202Z,31.43
2018-04-22T14:51:43.670Z,30.85
2018-04-22T14:54:12.092Z,30.57
2018-04-22T14:56:40.489Z,31.67
2018-04-22T14:59:08.903Z,32.24
2018-04-22T15:01:37.340Z,32.19
2018-04-22T15:04:05.788Z,31.00
2018-04-22T15:06:34.219Z,31.19
2018-04-22T15:09:02.641Z,31.27
2018-04-22T15:11:31.044Z,30.96
2018-04-22T15:13:59.431Z,30.78
2018-04-22T15:16:27.890Z,29.80
2018-04-22T15:18:56.407Z,30.61
2018-04-22T15:21:24.930Z,30.78
2018-04-22T15:23:53.359Z,30.13
2018-04-22T15:26:21.797Z,30.83
2018-04-22T15:28:50.225Z,31.64
2018-04-22T15:31:18.755Z,31.10
2018-04-22T15:33:47.263Z,30.40
2018-04-22T15:36:15.704Z,30.80
2018-04-22T15:38:44.146Z,31.03
2018-04-22T15:41:12.527Z,30.94
2018-04-22T15:43:41.007Z,30.93
2018-04-22T15:46:09.398Z,30.44
2018-04-22T15:48:37.809Z,30.33
2018-04-22T15:51:06.269Z,29.75
2018-04-22T15:53:34.667Z,29.67
2018-04-22T15:56:03.307Z,29.73
2018-04-22T15:58:31.706Z,29.20
2018-04-22T16:01:00.139Z,29.07
2018-04-22T16:03:28.587Z,28.61
2018-04-22T16:05:57.064Z,28.34
2018-04-22T16:08:25.540Z,28.51
2018-04-22T16:10:55.851Z,28.30
2018-04-22T16:13:25.284Z,28.22
2018-04-22T16:15:53.704Z,28.48
2018-04-22T16:18:22.539Z,28.34
2018-04-22T16:20:50.947Z,28.04
2018-04-22T16:23:19.368Z,28.13
2018-04-22T16:25:48.091Z,27.62
2018-04-22T16:28:16.462Z,27.19
2018-04-22T16:30:44.891Z,27.62
2018-04-22T16:33:13.765Z,27.12
2018-04-22T16:35:42.136Z,27.05
2018-04-22T16:38:10.535Z,27.72
2018-04-22T16:40:39.270Z,26.90
2018-04-22T16:43:07.679Z,26.55
2018-04-22T16:45:36.099Z,26.29
2018-04-22T16:48:04.931Z,26.84
2018-04-22T16:50:33.378Z,26.21
2018-04-22T16:53:01.796Z,26.12
2018-04-22T16:55:30.821Z,25.52
2018-04-22T16:57:59.266Z,25.25
2018-04-22T17:00:27.688Z,24.70
2018-04-22T17:02:56.553Z,24.09
2018-04-22T17:05:25.119Z,23.88
2018-04-22T17:07:53.533Z,23.62
2018-04-22T17:10:22.009Z,23.54
2018-04-22T17:12:50.428Z,23.28
2018-04-22T17:15:18.887Z,22.80
2018-04-22T17:17:47.546Z,22.55
2018-04-22T17:20:16.022Z,22.08
2018-04-22T17:22:44.539Z,22.00
2018-04-22T17:25:13.299Z,21.96
2018-04-22T17:27:41.717Z,21.78
2018-04-22T17:30:10.146Z,21.24
2018-04-22T17:32:38.857Z,20.97
2018-04-22T17:35:07.242Z,20.93
2018-04-22T17:37:35.662Z,21.10
2018-04-22T17:40:04.570Z,21.18
2018-04-22T17:42:32.975Z,21.13
2018-04-22T17:45:01.376Z,20.76
2018-04-22T17:47:30.450Z,20.77
2018-04-22T17:49:58.991Z,20.47
2018-04-22T17:52:27.429Z,20.47
2018-04-22T17:54:55.879Z,20.28
2018-04-22T17:57:24.317Z,20.41
2018-04-22T17:59:53.008Z,20.08
2018-04-22T18:02:21.607Z,20.07
2018-04-22T18:04:50.003Z,20.05
2018-04-22T18:07:18.457Z,20.07
2018-04-22T18:09:46.944Z,19.76
2018-04-22T18:12:15.487Z,19.73
2018-04-22T18:14:43.948Z,19.37
2018-04-22T18:17:12.474Z,19.56
2018-04-22T18:19:42.737Z,19.60
2018-04-22T18:22:11.223Z,19.55
2018-04-22T18:24:40.121Z,19.54
2018-04-22T18:27:08.540Z,19.44
2018-04-22T18:29:37.030Z,19.39
2018-04-22T18:32:05.811Z,19.32
2018-04-22T18:34:34.255Z,19.16
2018-04-22T18:37:02.653Z,19.01
2018-04-22T18:39:31.344Z,18.70
2018-04-22T18:42:00.119Z,18.79
2018-04-22T18:44:28.560Z,18.85
2018-04-22T18:46:57.159Z,18.75
2018-04-22T18:49:25.619Z,18.73
2018-04-22T18:51:54.103Z,18.77
2018-04-22T18:54:22.569Z,18.63
2018-04-22T18:56:50.990Z,18.62
2018-04-22T18:59:19.427Z,18.46
2018-04-22T19:01:47.876Z,18.45
2018-04-22T19:04:16.354Z,18.50
2018-04-22T19:06:45.165Z,18.54
2018-04-22T19:09:13.627Z,18.38
2018-04-22T19:11:42.152Z,18.35
2018-04-22T19:14:10.754Z,18.31
2018-04-22T19:16:39.160Z,18.34
2018-04-22T19:19:07.581Z,18.22
2018-04-22T19:21:36.318Z,18.12
2018-04-22T19:24:04.795Z,18.17
2018-04-22T19:26:33.234Z,18.06
2018-04-22T19:29:01.778Z,17.95
2018-04-22T19:31:30.166Z,17.86
2018-04-22T19:33:58.585Z,17.67
2018-04-22T19:36:27.364Z,17.73
2018-04-22T19:38:55.793Z,17.65
2018-04-22T19:41:24.223Z,17.51
2018-04-22T19:43:52.799Z,17.56
2018-04-22T19:46:21.202Z,17.57
2018-04-22T19:48:49.596Z,17.50
2018-04-22T19:51:18.456Z,17.34
2018-04-22T19:53:47.024Z,17.42
2018-04-22T19:56:15.467Z,17.32
2018-04-22T19:58:44.337Z,17.25
2018-04-22T20:01:12.719Z,17.20
2018-04-22T20:03:41.100Z,17.18
2018-04-22T20:06:09.876Z,17.18
2018-04-22T20:08:38.282Z,17.05
2018-04-22T20:11:06.738Z,17.02
2018-04-22T20:13:35.224Z,16.99
2018-04-22T20:16:03.693Z,17.09
2018-04-22T20:18:32.101Z,16.84
2018-04-22T20:21:00.614Z,16.91
2018-04-22T20:23:29.013Z,16.81
2018-04-22T20:25:57.432Z,16.77
2018-04-22T20:28:26.098Z,16.77
2018-04-22T20:30:54.488Z,16.66
2018-04-22T20:33:22.883Z,16.64
2018-04-22T20:35:51.759Z,16.64
2018-04-22T20:38:20.161Z,16.57
2018-04-22T20:40:48.575Z,16.51
2018-04-22T20:43:17.196Z,16.52
2018-04-22T20:45:46.377Z,16.54
2018-04-22T20:48:14.798Z,16.50
2018-04-22T20:50:43.448Z,16.59
2018-04-22T20:53:11.859Z,16.60
2018-04-22T20:55:40.255Z,16.62
2018-04-22T20:58:08.775Z,16.66
2018-04-22T21:00:37.303Z,16.73
2018-04-22T21:03:05.747Z,16.67
2018-04-22T21:05:34.160Z,16.66
2018-04-22T21:08:02.617Z,16.74
2018-04-22T21:10:31.067Z,16.81
2018-04-22T21:12:59.499Z,16.85
2018-04-22T21:15:27.931Z,16.93
2018-04-22T21:17:56.374Z,16.86
2018-04-22T21:20:24.783Z,16.87
2018-04-22T21:22:53.262Z,16.76
2018-04-22T21:25:21.986Z,16.74
2018-04-22T21:27:50.444Z,16.69
2018-04-22T21:30:18.842Z,16.68
2018-04-22T21:32:47.261Z,16.69
2018-04-22T21:35:15.715Z,16.62
2018-04-22T21:37:44.145Z,16.66
2018-04-22T21:40:12.674Z,16.60
2018-04-22T21:42:41.053Z,16.58
2018-04-22T21:45:09.485Z,16.53
2018-04-22T21:47:37.896Z,16.39
2018-04-22T21:50:06.364Z,16.26
2018-04-22T21:52:34.847Z,16.35
2018-04-22T21:55:03.309Z,16.26
2018-04-22T21:57:31.802Z,16.22
2018-04-22T22:00:00.244Z,16.30
2018-04-22T22:02:28.744Z,16.49
2018-04-22T22:04:57.219Z,16.27
2018-04-22T22:07:25.627Z,16.15
2018-04-22T22:09:54.032Z,15.94
2018-04-22T22:12:22.480Z,15.59
2018-04-22T22:14:50.928Z,15.26
2018-04-22T22:17:19.343Z,15.04
2018-04-22T22:19:47.771Z,15.03
2018-04-22T22:22:16.171Z,15.38
2018-04-22T22:24:44.634Z,15.30
2018-04-22T22:27:13.043Z,15.26
2018-04-22T22:29:41.471Z,15.21
2018-04-22T22:32:10.029Z,15.08
2018-04-22T22:34:38.455Z,15.05
2018-04-22T22:37:06.858Z,14.91
2018-04-22T22:39:35.272Z,14.87
2018-04-22T22:42:03.735Z,14.72
2018-04-22T22:44:32.181Z,14.91
2018-04-22T22:47:00.607Z,14.90
2018-04-22T22:49:29.079Z,14.79
2018-04-22T22:51:57.476Z,14.73
2018-04-22T22:54:25.879Z,15.23
2018-04-22T22:56:54.322Z,15.37
2018-04-22T22:59:22.711Z,15.38
2018-04-22T23:01:51.177Z,15.15
2018-04-22T23:04:19.647Z,15.17
2018-04-22T23:06:48.035Z,15.07
2018-04-22T23:09:16.486Z,14.91
2018-04-22T23:11:44.870Z,15.00
2018-04-22T23:14:13.362Z,14.56
2018-04-22T23:16:42.882Z,14.47
2018-04-22T23:19:11.360Z,14.43
2018-04-22T23:21:39.755Z,14.47
2018-04-22T23:24:08.243Z,14.40
2018-04-22T23:26:36.709Z,14.09
2018-04-22T23:29:05.111Z,13.84
2018-04-22T23:31:33.674Z,13.96
2018-04-22T23:34:02.367Z,13.93
2018-04-22T23:36:30.816Z,13.75
2018-04-22T23:38:59.267Z,13.90
2018-04-22T23:41:27.665Z,14.05
2018-04-22T23:43:56.082Z,13.86
2018-04-22T23:46:24.475Z,13.93
2018-04-22T23:48:52.939Z,14.10
2018-04-22T23:51:21.391Z,14.05
2018-04-22T23:53:49.796Z,13.71
2018-04-22T23:56:18.248Z,13.73
2018-04-22T23:58:46.677Z,13.52
